createdAt,value
2018-04-22T00:02:24.405Z,2.10
2018-04-22T00:04:52.089Z,2.07
2018-04-22T00:07:19.627Z,1.90
2018-04-22T00:09:47.165Z,2.87
2018-04-22T00:12:14.745Z,2.07
2018-04-22T00:14:42.304Z,2.20
2018-04-22T00:17:09.841Z,2.37
2018-04-22T00:19:37.396Z,2.30
2018-04-22T00:22:04.928Z,2.10
2018-04-22T00:24:33.259Z,2.40
2018-04-22T00:27:00.801Z,2.13
2018-04-22T00:29:28.374Z,1.90
2018-04-22T00:32:00.089Z,1.80
2018-04-22T00:34:28.408Z,2.00
2018-04-22T00:36:55.957Z,1.40
2018-04-22T00:39:23.526Z,1.70
2018-04-22T00:41:51.061Z,1.80
2018-04-22T00:44:18.640Z,2.83
2018-04-22T00:46:46.171Z,2.20
2018-04-22T00:49:14.476Z,1.93
2018-04-22T00:51:42.040Z,1.73
2018-04-22T00:54:20.413Z,1.80
2018-04-22T00:56:48.782Z,1.70
2018-04-22T00:59:16.324Z,2.27
2018-04-22T01:01:43.886Z,2.13
2018-04-22T01:04:11.430Z,2.40
2018-04-22T01:06:38.993Z,1.93
2018-04-22T01:09:06.517Z,1.70
2018-04-22T01:11:34.085Z,2.10
2018-04-22T01:14:01.710Z,2.13
2018-04-22T01:16:30.032Z,2.07
2018-04-22T01:18:57.595Z,1.70
2018-04-22T01:21:25.156Z,1.50
2018-04-22T01:23:52.686Z,1.90
2018-04-22T01:26:21.005Z,1.90
2018-04-22T01:28:48.541Z,2.10
2018-04-22T01:31:16.998Z,1.67
2018-04-22T01:33:45.310Z,2.13
2018-04-22T01:36:12.889Z,1.50
2018-04-22T01:38:40.440Z,1.50
2018-04-22T01:41:08.001Z,1.60
2018-04-22T01:43:35.531Z,2.17
2018-04-22T01:46:03.101Z,1.23
2018-04-22T01:48:30.633Z,1.80
2018-04-22T01:50:58.968Z,2.17
2018-04-22T01:53:26.497Z,2.00
2018-04-22T01:55:54.058Z,2.20
2018-04-22T01:58:21.604Z,2.00
2018-04-22T02:00:49.932Z,1.87
2018-04-22T02:03:17.464Z,2.20
2018-04-22T02:05:45.004Z,2.03
2018-04-22T02:08:13.351Z,1.90
2018-04-22T02:10:40.897Z,1.90
2018-04-22T02:13:08.462Z,1.93
2018-04-22T02:15:36.010Z,2.10
2018-04-22T02:18:03.581Z,2.17
2018-04-22T02:20:31.109Z,2.07
2018-04-22T02:22:58.672Z,1.93
2018-04-22T02:25:26.211Z,2.40
2018-04-22T02:27:53.764Z,2.27
2018-04-22T02:30:21.332Z,2.07
2018-04-22T02:32:48.910Z,2.13
2018-04-22T02:35:16.458Z,2.13
2018-04-22T02:37:44.005Z,2.03
2018-04-22T02:40:11.579Z,2.17
2018-04-22T02:42:39.117Z,1.87
2018-04-22T02:45:06.697Z,2.33
2018-04-22T02:47:34.262Z,2.20
2018-04-22T02:50:01.835Z,1.60
2018-04-22T02:52:29.378Z,2.07
2018-04-22T02:54:56.941Z,1.90
2018-04-22T02:57:24.512Z,1.73
2018-04-22T02:59:52.390Z,1.70
2018-04-22T03:02:19.922Z,1.67
2018-04-22T03:04:47.501Z,2.27
2018-04-22T03:07:15.056Z,1.60
2018-04-22T03:09:42.621Z,2.23
2018-04-22T03:12:10.158Z,2.10
2018-04-22T03:14:37.740Z,1.87
2018-04-22T03:17:05.295Z,2.10
2018-04-22T03:19:32.833Z,1.93
2018-04-22T03:22:01.165Z,1.63
2018-04-22T03:24:28.701Z,1.70
2018-04-22T03:26:56.253Z,1.40
2018-04-22T03:29:23.790Z,1.80
2018-04-22T03:31:52.120Z,2.20
2018-04-22T03:34:19.661Z,1.93
2018-04-22T03:36:47.222Z,1.80
2018-04-22T03:39:14.753Z,1.97
2018-04-22T03:41:42.321Z,2.00
2018-04-22T03:44:09.857Z,1.90
2018-04-22T03:46:38.199Z,1.43
2018-04-22T03:49:05.737Z,2.37
2018-04-22T03:51:33.288Z,2.00
2018-04-22T03:54:00.832Z,1.70
2018-04-22T03:56:28.406Z,1.70
2018-04-22T03:58:55.936Z,2.13
2018-04-22T04:01:24.238Z,1.77
2018-04-22T04:03:51.830Z,1.77
2018-04-22T04:06:19.385Z,1.70
2018-04-22T04:08:46.945Z,1.80
2018-04-22T04:11:14.487Z,2.30
2018-04-22T04:13:42.050Z,1.87
2018-04-22T04:16:09.596Z,1.80
2018-04-22T04:21:49.819Z,1.87
2018-04-22T04:24:47.068Z,1.80
2018-04-22T04:30:25.381Z,1.70
2018-04-22T04:32:52.914Z,2.00
2018-04-22T04:35:20.541Z,1.83
2018-04-22T04:37:48.073Z,1.83
2018-04-22T04:40:15.650Z,1.70
2018-04-22T04:42:43.187Z,1.83
2018-04-22T04:45:10.744Z,1.87
2018-04-22T04:47:38.306Z,1.90
2018-04-22T04:50:05.876Z,1.73
2018-04-22T04:52:33.413Z,1.43
2018-04-22T04:55:00.981Z,1.73
2018-04-22T04:57:28.567Z,1.80
2018-04-22T04:59:56.179Z,1.90
2018-04-22T05:02:23.708Z,1.93
2018-04-22T05:04:51.273Z,2.00
2018-04-22T05:07:18.820Z,1.97
2018-04-22T05:09:46.417Z,1.77
2018-04-22T05:12:14.728Z,2.30
2018-04-22T05:14:42.273Z,1.67
2018-04-22T05:17:09.855Z,2.22
2018-04-22T05:19:37.408Z,2.00
2018-04-22T05:22:04.980Z,2.10
2018-04-22T05:24:32.515Z,2.05
2018-04-22T05:27:00.089Z,2.05
2018-04-22T05:29:27.650Z,1.85
2018-04-22T05:31:55.240Z,1.75
2018-04-22T05:34:22.780Z,1.45
2018-04-22T05:36:50.438Z,1.58
2018-04-22T05:39:17.972Z,1.85
2018-04-22T05:41:45.558Z,1.60
2018-04-22T05:44:13.094Z,1.70
2018-04-22T05:46:40.663Z,1.25
2018-04-22T05:49:08.192Z,1.30
2018-04-22T05:51:35.762Z,1.33
2018-04-22T05:54:04.120Z,1.42
2018-04-22T05:56:31.659Z,1.62
2018-04-22T05:58:59.216Z,1.55
2018-04-22T06:01:26.749Z,0.90
2018-04-22T06:03:54.300Z,1.00
2018-04-22T06:06:21.834Z,0.90
2018-04-22T06:08:49.393Z,0.90
2018-04-22T06:11:17.702Z,1.30
2018-04-22T06:13:45.272Z,0.95
2018-04-22T06:16:12.822Z,0.88
2018-04-22T06:18:40.393Z,1.10
2018-04-22T06:21:07.957Z,0.95
2018-04-22T06:23:35.516Z,1.35
2018-04-22T06:26:03.068Z,1.00
2018-04-22T06:28:30.637Z,0.90
2018-04-22T06:30:58.207Z,1.10
2018-04-22T06:33:25.758Z,1.05
2018-04-22T06:35:53.301Z,1.17
2018-04-22T06:38:20.895Z,1.33
2018-04-22T06:40:48.524Z,1.25
2018-04-22T06:43:16.068Z,1.45
2018-04-22T06:45:44.451Z,1.10
2018-04-22T06:48:11.988Z,1.15
2018-04-22T06:50:39.547Z,1.30
2018-04-22T06:53:07.118Z,1.40
2018-04-22T06:55:35.504Z,1.08
2018-04-22T06:58:03.841Z,1.17
2018-04-22T07:00:32.217Z,1.10
2018-04-22T07:02:59.771Z,0.90
2018-04-22T07:05:28.379Z,0.88
2018-04-22T07:07:56.910Z,0.62
2018-04-22T07:10:24.535Z,0.70
2018-04-22T07:12:52.093Z,0.88
2018-04-22T07:15:19.693Z,0.77
2018-04-22T07:17:47.238Z,1.00
2018-04-22T07:20:15.627Z,1.05
2018-04-22T07:22:43.207Z,0.70
2018-04-22T07:25:10.737Z,0.70
2018-04-22T07:27:39.155Z,1.00
2018-04-22T07:30:06.715Z,0.70
2018-04-22T07:32:34.288Z,1.05
2018-04-22T07:35:01.843Z,0.88
2018-04-22T07:37:29.405Z,0.60
2018-04-22T07:39:56.957Z,0.88
2018-04-22T07:42:24.534Z,0.93
2018-04-22T07:44:52.112Z,1.58
2018-04-22T07:47:19.695Z,0.80
2018-04-22T07:49:48.043Z,1.00
2018-04-22T07:52:15.609Z,0.80
2018-04-22T07:54:43.178Z,0.70
2018-04-22T07:57:10.778Z,0.85
2018-04-22T07:59:38.391Z,1.12
2018-04-22T08:02:05.977Z,0.73
2018-04-22T08:04:34.302Z,0.90
2018-04-22T08:07:01.846Z,1.00
2018-04-22T08:09:29.425Z,1.15
2018-04-22T08:11:56.965Z,1.23
2018-04-22T08:14:24.577Z,1.12
2018-04-22T08:16:52.116Z,1.10
2018-04-22T08:19:19.681Z,1.02
2018-04-22T08:21:47.227Z,1.27
2018-04-22T08:24:14.837Z,1.08
2018-04-22T08:26:43.165Z,0.90
2018-04-22T08:29:10.761Z,1.30
2018-04-22T08:31:38.306Z,1.33
2018-04-22T08:34:06.639Z,1.55
2018-04-22T08:36:34.205Z,1.27
2018-04-22T08:39:01.849Z,1.00
2018-04-22T08:41:29.405Z,1.12
2018-04-22T08:43:57.771Z,1.40
2018-04-22T08:46:25.329Z,1.75
2018-04-22T08:48:52.888Z,1.50
2018-04-22T08:51:20.457Z,1.80
2018-04-22T08:53:48.834Z,1.70
2018-04-22T08:56:17.182Z,1.42
2018-04-22T08:58:44.740Z,1.33
2018-04-22T09:01:12.330Z,1.60
2018-04-22T09:03:39.878Z,1.48
2018-04-22T09:06:07.525Z,1.95
2018-04-22T09:08:35.970Z,2.15
2018-04-22T09:11:03.622Z,1.90
2018-04-22T09:13:31.191Z,1.80
2018-04-22T09:15:59.151Z,2.05
2018-04-22T09:18:27.498Z,2.00
2018-04-22T09:20:55.059Z,1.60
2018-04-22T09:23:22.606Z,2.25
2018-04-22T09:25:50.963Z,1.90
2018-04-22T09:28:18.566Z,2.35
2018-04-22T09:30:46.145Z,1.70
2018-04-22T09:33:14.535Z,1.80
2018-04-22T09:35:42.850Z,1.85
2018-04-22T09:38:10.436Z,1.90
2018-04-22T09:40:38.032Z,2.20
2018-04-22T09:43:06.502Z,2.00
2018-04-22T09:45:34.077Z,2.15
2018-04-22T09:48:01.672Z,2.10
2018-04-22T09:50:29.245Z,1.98
2018-04-22T09:52:56.819Z,2.28
2018-04-22T09:55:24.378Z,2.60
2018-04-22T09:57:51.986Z,2.42
2018-04-22T10:00:25.117Z,2.72
2018-04-22T10:02:52.701Z,2.53
2018-04-22T10:05:22.186Z,2.30
2018-04-22T10:07:49.744Z,2.17
2018-04-22T10:10:17.310Z,1.92
2018-04-22T10:12:44.883Z,2.50
2018-04-22T10:15:12.540Z,2.28
2018-04-22T10:17:40.157Z,2.25
2018-04-22T10:20:07.712Z,2.72
2018-04-22T10:22:35.263Z,2.05
2018-04-22T10:25:02.842Z,2.30
2018-04-22T10:27:30.388Z,2.55
2018-04-22T10:29:58.018Z,2.00
2018-04-22T10:32:25.610Z,2.87
2018-04-22T10:34:53.194Z,2.08
2018-04-22T10:37:20.761Z,2.30
2018-04-22T10:39:48.433Z,2.50
2018-04-22T10:42:16.515Z,2.40
2018-04-22T10:44:44.133Z,2.80
2018-04-22T10:47:11.757Z,2.17
2018-04-22T10:49:39.410Z,2.60
2018-04-22T10:52:06.972Z,2.03
2018-04-22T10:54:34.638Z,2.00
2018-04-22T10:57:02.194Z,2.15
2018-04-22T10:59:29.842Z,2.35
2018-04-22T11:01:57.395Z,2.20
2018-04-22T11:04:24.983Z,1.73
2018-04-22T11:06:52.615Z,2.30
2018-04-22T11:09:20.184Z,2.25
2018-04-22T11:11:47.889Z,1.85
2018-04-22T11:14:15.475Z,2.22
2018-04-22T11:16:43.090Z,1.85
2018-04-22T11:19:10.670Z,1.52
2018-04-22T11:21:39.046Z,1.73
2018-04-22T11:24:06.701Z,2.03
2018-04-22T11:26:34.380Z,2.08
2018-04-22T11:29:02.781Z,1.60
2018-04-22T11:31:30.481Z,2.20
2018-04-22T11:33:58.067Z,1.77
2018-04-22T11:36:25.695Z,1.87
2018-04-22T11:38:53.736Z,2.83
2018-04-22T11:41:21.404Z,2.37
2018-04-22T11:43:49.015Z,2.45
2018-04-22T11:46:16.627Z,2.65
2018-04-22T11:48:44.975Z,1.92
2018-04-22T11:51:13.303Z,1.77
2018-04-22T11:53:41.006Z,1.58
2018-04-22T11:56:09.360Z,2.45
2018-04-22T11:58:36.928Z,2.90
2018-04-22T12:01:04.551Z,2.20
2018-04-22T12:03:32.116Z,2.30
2018-04-22T12:05:59.664Z,1.90
2018-04-22T12:08:27.255Z,2.53
2018-04-22T12:10:54.927Z,2.17
2018-04-22T12:13:22.487Z,1.98
2018-04-22T12:15:50.039Z,2.05
2018-04-22T12:18:17.604Z,1.87
2018-04-22T12:20:45.136Z,2.03
2018-04-22T12:23:12.716Z,1.52
2018-04-22T12:25:40.285Z,1.85
2018-04-22T12:28:07.861Z,2.12
2018-04-22T12:30:35.433Z,1.55
2018-04-22T12:33:03.019Z,1.87
2018-04-22T12:35:31.394Z,1.65
2018-04-22T12:37:59.713Z,1.23
2018-04-22T12:40:27.273Z,1.80
2018-04-22T12:42:54.818Z,1.33
2018-04-22T12:45:22.385Z,1.23
2018-04-22T12:47:49.929Z,1.52
2018-04-22T12:50:17.499Z,1.50
2018-04-22T12:52:45.062Z,1.60
2018-04-22T12:55:12.638Z,1.12
2018-04-22T12:57:40.200Z,0.90
2018-04-22T13:00:07.778Z,1.50
2018-04-22T13:02:35.347Z,1.55
2018-04-22T13:05:02.972Z,1.55
2018-04-22T13:07:30.528Z,1.40
2018-04-22T13:09:58.100Z,1.52
2018-04-22T13:12:25.653Z,1.70
2018-04-22T13:14:53.246Z,1.20
2018-04-22T13:17:21.142Z,1.30
2018-04-22T13:19:48.737Z,1.35
2018-04-22T13:22:16.322Z,1.33
2018-04-22T13:24:43.865Z,1.52
2018-04-22T13:27:11.425Z,1.62
2018-04-22T13:29:38.987Z,1.42
2018-04-22T13:32:06.543Z,1.20
2018-04-22T13:34:34.115Z,1.52
2018-04-22T13:37:01.757Z,1.50
2018-04-22T13:39:29.304Z,1.27
2018-04-22T13:41:57.640Z,1.60
2018-04-22T13:44:25.188Z,1.45
2018-04-22T13:46:52.749Z,1.40
2018-04-22T13:49:20.306Z,1.08
2018-04-22T13:51:47.882Z,1.30
2018-04-22T13:54:15.424Z,1.50
2018-04-22T13:56:43.004Z,1.27
2018-04-22T13:59:10.564Z,1.08
2018-04-22T14:01:38.148Z,1.30
2018-04-22T14:04:05.670Z,1.35
2018-04-22T14:06:33.233Z,1.05
2018-04-22T14:09:00.804Z,1.10
2018-04-22T14:11:28.368Z,1.23
2018-04-22T14:13:55.944Z,1.10
2018-04-22T14:16:23.507Z,1.45
2018-04-22T14:18:51.067Z,1.60
2018-04-22T14:21:19.403Z,0.93
2018-04-22T14:23:46.956Z,1.15
2018-04-22T14:26:14.503Z,1.08
2018-04-22T14:28:42.095Z,1.40
2018-04-22T14:31:09.633Z,1.75
2018-04-22T14:33:37.207Z,1.23
2018-04-22T14:36:04.748Z,1.48
2018-04-22T14:38:32.336Z,1.27
2018-04-22T14:40:59.867Z,1.62
2018-04-22T14:43:27.428Z,1.10
2018-04-22T14:46:06.825Z,1.12
2018-04-22T14:48:46.195Z,1.23
2018-04-22T14:51:13.741Z,1.55
2018-04-22T14:53:42.092Z,0.75
2018-04-22T14:56:09.640Z,1.73
2018-04-22T14:58:37.237Z,1.10
2018-04-22T15:01:04.767Z,1.15
2018-04-22T15:03:32.320Z,1.05
2018-04-22T15:05:59.879Z,1.10
2018-04-22T15:08:27.417Z,1.10
2018-04-22T15:10:54.972Z,1.40
2018-04-22T15:13:22.625Z,0.98
2018-04-22T15:15:50.172Z,1.12
2018-04-22T15:18:18.473Z,1.30
2018-04-22T15:20:46.032Z,1.10
2018-04-22T15:23:13.588Z,1.00
2018-04-22T15:25:41.136Z,1.10
2018-04-22T15:28:08.770Z,1.17
2018-04-22T15:30:37.111Z,1.10
2018-04-22T15:33:04.660Z,1.35
2018-04-22T15:35:32.229Z,1.48
2018-04-22T15:37:59.803Z,1.15
2018-04-22T15:40:27.413Z,1.37
2018-04-22T15:42:55.728Z,1.37
2018-04-22T15:45:23.275Z,1.08
2018-04-22T15:47:50.835Z,1.35
2018-04-22T15:50:18.375Z,1.10
2018-04-22T15:52:46.702Z,1.10
2018-04-22T15:55:14.277Z,0.82
2018-04-22T15:57:41.841Z,1.50
2018-04-22T16:00:09.388Z,1.10
2018-04-22T16:02:36.966Z,1.70
2018-04-22T16:05:04.597Z,1.35
2018-04-22T16:07:32.151Z,1.30
2018-04-22T16:09:59.685Z,1.30
2018-04-22T16:12:27.253Z,1.48
2018-04-22T16:14:54.810Z,1.40
2018-04-22T16:17:22.372Z,1.33
2018-04-22T16:19:49.955Z,1.90
2018-04-22T16:22:17.523Z,1.45
2018-04-22T16:24:45.115Z,1.08
2018-04-22T16:27:12.726Z,1.25
2018-04-22T16:29:41.180Z,1.30
2018-04-22T16:32:09.505Z,1.30
2018-04-22T16:34:37.078Z,1.10
2018-04-22T16:37:04.644Z,1.30
2018-04-22T16:39:32.222Z,1.15
2018-04-22T16:41:59.801Z,1.58
2018-04-22T16:44:28.146Z,1.30
2018-04-22T16:46:55.711Z,1.50
2018-04-22T16:49:23.279Z,1.08
2018-04-22T16:51:50.887Z,1.37
2018-04-22T16:54:18.488Z,1.00
2018-04-22T16:56:46.037Z,1.08
2018-04-22T16:59:13.672Z,1.12
2018-04-22T17:01:41.317Z,1.40
2018-04-22T17:04:09.656Z,1.55
2018-04-22T17:06:37.302Z,1.40
2018-04-22T17:09:06.386Z,1.27
2018-04-22T17:11:33.928Z,1.10
2018-04-22T17:14:01.508Z,1.33
2018-04-22T17:16:29.127Z,1.20
2018-04-22T17:18:56.672Z,0.90
2018-04-22T17:21:25.031Z,1.25
2018-04-22T17:23:52.597Z,1.10
2018-04-22T17:26:20.929Z,1.17
2018-04-22T17:28:48.479Z,1.27
2018-04-22T17:31:16.072Z,1.30
2018-04-22T17:33:43.612Z,0.95
2018-04-22T17:36:12.196Z,1.20
2018-04-22T17:38:39.781Z,1.40
2018-04-22T17:41:07.358Z,1.40
2018-04-22T17:43:34.913Z,1.42
2018-04-22T17:46:02.492Z,1.25
2018-04-22T17:48:30.113Z,1.77
2018-04-22T17:50:57.801Z,1.10
2018-04-22T17:53:25.448Z,0.90
2018-04-22T17:55:53.004Z,1.00
2018-04-22T17:58:20.567Z,1.30
2018-04-22T18:00:48.113Z,1.23
2018-04-22T18:03:15.801Z,1.00
2018-04-22T18:05:43.378Z,1.20
2018-04-22T18:08:10.936Z,1.67
2018-04-22T18:10:38.470Z,1.25
2018-04-22T18:13:06.027Z,1.20
2018-04-22T18:15:33.582Z,1.83
2018-04-22T18:18:01.289Z,1.65
2018-04-22T18:20:29.641Z,1.25
2018-04-22T18:22:57.203Z,1.37
2018-04-22T18:25:24.762Z,1.25
2018-04-22T18:27:52.325Z,1.15
2018-04-22T18:30:19.894Z,1.27
2018-04-22T18:32:47.485Z,1.20
2018-04-22T18:35:15.035Z,1.20
2018-04-22T18:37:42.612Z,1.42
2018-04-22T18:40:10.927Z,1.77
2018-04-22T18:42:38.703Z,1.58
2018-04-22T18:45:06.285Z,1.52
2018-04-22T18:47:33.865Z,1.37
2018-04-22T18:50:01.465Z,1.58
2018-04-22T18:52:29.000Z,1.60
2018-04-22T18:54:57.378Z,1.77
2018-04-22T18:57:24.965Z,1.65
2018-04-22T18:59:52.549Z,1.55
2018-04-22T19:02:20.118Z,1.57
2018-04-22T19:04:47.764Z,1.55
2018-04-22T19:07:15.301Z,1.67
2018-04-22T19:09:43.632Z,1.48
2018-04-22T19:12:11.184Z,1.50
2018-04-22T19:14:38.793Z,1.43
2018-04-22T19:17:06.358Z,1.42
2018-04-22T19:19:34.685Z,1.75
2018-04-22T19:22:02.232Z,1.75
2018-04-22T19:24:29.900Z,2.00
2018-04-22T19:26:57.485Z,1.63
2018-04-22T19:29:25.026Z,1.67
2018-04-22T19:31:52.619Z,1.73
2018-04-22T19:34:20.221Z,1.70
2018-04-22T19:36:47.824Z,1.60
2018-04-22T19:39:15.443Z,1.63
2018-04-22T19:41:43.019Z,1.58
2018-04-22T19:44:10.589Z,2.83
2018-04-22T19:46:38.192Z,2.10
2018-04-22T19:49:05.760Z,1.97
2018-04-22T19:51:35.104Z,2.10
2018-04-22T19:54:02.687Z,2.20
2018-04-22T19:56:30.253Z,1.95
2018-04-22T19:58:57.908Z,1.80
2018-04-22T20:01:26.266Z,2.20
2018-04-22T20:03:53.947Z,2.00
2018-04-22T20:06:21.521Z,2.13
2018-04-22T20:08:49.069Z,2.00
2018-04-22T20:11:16.630Z,2.20
2018-04-22T20:13:44.176Z,1.97
2018-04-22T20:16:11.716Z,2.57
2018-04-22T20:18:39.279Z,2.50
2018-04-22T20:21:06.813Z,2.43
2018-04-22T20:23:35.159Z,2.00
2018-04-22T20:26:02.712Z,2.33
2018-04-22T20:28:30.274Z,2.60
2018-04-22T20:30:57.807Z,2.27
2018-04-22T20:33:25.377Z,2.20
2018-04-22T20:35:52.921Z,2.37
2018-04-22T20:38:20.502Z,1.90
2018-04-22T20:40:48.040Z,2.20
2018-04-22T20:43:15.610Z,2.83
2018-04-22T20:45:43.177Z,2.23
2018-04-22T20:48:10.737Z,2.30
2018-04-22T20:50:38.268Z,2.40
2018-04-22T20:53:06.601Z,2.70
2018-04-22T20:55:34.126Z,2.00
2018-04-22T20:58:01.682Z,2.03
2018-04-22T21:00:29.210Z,1.90
2018-04-22T21:02:56.942Z,2.17
2018-04-22T21:05:25.322Z,2.20
2018-04-22T21:07:52.915Z,2.00
2018-04-22T21:10:20.526Z,2.47
2018-04-22T21:12:48.222Z,2.20
2018-04-22T21:15:16.545Z,2.00
2018-04-22T21:17:44.084Z,2.23
2018-04-22T21:20:12.411Z,2.07
2018-04-22T21:22:39.944Z,2.10
2018-04-22T21:25:07.589Z,2.03
2018-04-22T21:27:35.908Z,2.23
2018-04-22T21:30:03.493Z,1.73
2018-04-22T21:32:31.052Z,2.50
2018-04-22T21:34:58.617Z,2.27
2018-04-22T21:37:26.151Z,1.40
2018-04-22T21:39:53.709Z,2.30
2018-04-22T21:42:21.251Z,2.50
2018-04-22T21:44:48.830Z,1.83
2018-04-22T21:47:16.359Z,1.80
2018-04-22T21:49:44.696Z,2.57
2018-04-22T21:52:12.240Z,2.10
2018-04-22T21:54:39.794Z,2.40
2018-04-22T21:57:07.351Z,2.20
2018-04-22T21:59:34.904Z,2.50
2018-04-22T22:02:02.515Z,2.08
2018-04-22T22:04:30.074Z,2.33
2018-04-22T22:06:57.635Z,2.50
2018-04-22T22:09:25.245Z,2.37
2018-04-22T22:11:52.914Z,2.00
2018-04-22T22:14:21.464Z,1.98
2018-04-22T22:16:49.788Z,2.30
2018-04-22T22:19:17.331Z,2.70
2018-04-22T22:21:44.896Z,2.57
2018-04-22T22:24:12.445Z,2.07
2018-04-22T22:26:40.017Z,1.80
2018-04-22T22:29:07.568Z,2.30
2018-04-22T22:31:35.094Z,2.80
2018-04-22T22:34:03.416Z,2.23
2018-04-22T22:36:30.960Z,2.63
2018-04-22T22:38:59.457Z,2.03
2018-04-22T22:41:26.991Z,2.60
2018-04-22T22:43:55.324Z,2.87
2018-04-22T22:46:22.872Z,2.17
2018-04-22T22:48:50.432Z,2.00
2018-04-22T22:51:18.041Z,2.17
2018-04-22T22:53:46.370Z,2.20
2018-04-22T22:56:13.928Z,1.80
2018-04-22T22:58:41.493Z,2.03
2018-04-22T23:01:09.025Z,1.87
2018-04-22T23:03:36.606Z,1.80
2018-04-22T23:06:04.148Z,2.20
2018-04-22T23:08:31.754Z,2.03
2018-04-22T23:10:59.296Z,2.20
2018-04-22T23:13:27.661Z,2.13
2018-04-22T23:15:55.203Z,2.20
2018-04-22T23:18:22.738Z,1.67
2018-04-22T23:20:51.058Z,2.03
2018-04-22T23:23:18.608Z,2.40
2018-04-22T23:25:46.393Z,2.45
2018-04-22T23:28:13.934Z,2.53
2018-04-22T23:30:41.500Z,2.20
2018-04-22T23:33:09.051Z,1.87
2018-04-22T23:35:36.620Z,2.13
2018-04-22T23:38:04.149Z,2.13
2018-04-22T23:40:31.723Z,1.83
2018-04-22T23:42:59.271Z,2.03
2018-04-22T23:45:27.607Z,2.13
2018-04-22T23:47:55.146Z,2.20
2018-04-22T23:50:22.699Z,2.17
2018-04-22T23:52:50.232Z,1.60
2018-04-22T23:55:17.800Z,2.33
2018-04-22T23:57:45.339Z,2.10
